sensor_id;sensor_type;location;lat;lon;timestamp;temperature;humidity
47114;DHT22;32867;51.556;6.832;2023-04-06T00:03:42;7.00;62.30
47114;DHT22;32867;51.556;6.832;2023-04-06T00:08:42;7.00;62.20
47114;DHT22;32867;51.556;6.832;2023-04-06T00:13:44;6.90;62.40
47114;DHT22;32867;51.556;6.832;2023-04-06T00:18:45;6.80;62.70
47114;DHT22;32867;51.556;6.832;2023-04-06T00:23:46;6.70;62.80
47114;DHT22;32867;51.556;6.832;2023-04-06T00:28:47;6.60;62.70
47114;DHT22;32867;51.556;6.832;2023-04-06T00:33:48;6.50;63.30
47114;DHT22;32867;51.556;6.832;2023-04-06T00:38:49;6.40;63.50
47114;DHT22;32867;51.556;6.832;2023-04-06T00:43:50;6.30;63.70
47114;DHT22;32867;51.556;6.832;2023-04-06T00:48:51;6.30;64.30
47114;DHT22;32867;51.556;6.832;2023-04-06T00:53:51;6.20;64.00
47114;DHT22;32867;51.556;6.832;2023-04-06T00:58:52;6.20;64.10
47114;DHT22;32867;51.556;6.832;2023-04-06T01:03:54;6.20;64.40
47114;DHT22;32867;51.556;6.832;2023-04-06T01:08:56;6.10;64.60
47114;DHT22;32867;51.556;6.832;2023-04-06T01:13:59;6.10;64.80
47114;DHT22;32867;51.556;6.832;2023-04-06T01:19:15;6.10;64.80
47114;DHT22;32867;51.556;6.832;2023-04-06T01:24:21;6.00;65.00
47114;DHT22;32867;51.556;6.832;2023-04-06T01:29:33;6.00;65.40
47114;DHT22;32867;51.556;6.832;2023-04-06T01:34:36;6.00;65.40
47114;DHT22;32867;51.556;6.832;2023-04-06T01:39:39;6.00;65.40
47114;DHT22;32867;51.556;6.832;2023-04-06T01:44:41;5.90;66.00
47114;DHT22;32867;51.556;6.832;2023-04-06T01:49:47;5.90;66.30
47114;DHT22;32867;51.556;6.832;2023-04-06T01:54:49;5.90;66.30
47114;DHT22;32867;51.556;6.832;2023-04-06T01:59:56;5.90;66.50
47114;DHT22;32867;51.556;6.832;2023-04-06T02:05:14;6.00;66.70
47114;DHT22;32867;51.556;6.832;2023-04-06T02:10:15;6.00;66.40
47114;DHT22;32867;51.556;6.832;2023-04-06T02:15:18;6.10;66.50
47114;DHT22;32867;51.556;6.832;2023-04-06T02:20:19;6.20;66.40
47114;DHT22;32867;51.556;6.832;2023-04-06T02:25:20;6.10;66.70
47114;DHT22;32867;51.556;6.832;2023-04-06T02:30:21;6.20;67.00
47114;DHT22;32867;51.556;6.832;2023-04-06T02:35:24;6.10;67.50
47114;DHT22;32867;51.556;6.832;2023-04-06T02:40:28;6.10;67.50
47114;DHT22;32867;51.556;6.832;2023-04-06T02:45:30;6.20;67.40
47114;DHT22;32867;51.556;6.832;2023-04-06T02:50:35;6.20;68.00
47114;DHT22;32867;51.556;6.832;2023-04-06T02:55:39;6.10;67.90
47114;DHT22;32867;51.556;6.832;2023-04-06T03:00:40;6.10;68.00
47114;DHT22;32867;51.556;6.832;2023-04-06T03:05:42;6.00;68.70
47114;DHT22;32867;51.556;6.832;2023-04-06T03:10:44;6.10;68.60
47114;DHT22;32867;51.556;6.832;2023-04-06T03:15:45;6.00;68.90
47114;DHT22;32867;51.556;6.832;2023-04-06T03:20:50;6.00;69.40
47114;DHT22;32867;51.556;6.832;2023-04-06T03:25:52;6.00;69.50
47114;DHT22;32867;51.556;6.832;2023-04-06T03:30:55;6.00;69.50
47114;DHT22;32867;51.556;6.832;2023-04-06T03:36:15;6.10;69.00
47114;DHT22;32867;51.556;6.832;2023-04-06T03:41:17;6.10;68.80
47114;DHT22;32867;51.556;6.832;2023-04-06T03:46:26;6.10;69.30
47114;DHT22;32867;51.556;6.832;2023-04-06T03:51:30;6.10;69.10
47114;DHT22;32867;51.556;6.832;2023-04-06T03:56:31;6.10;68.70
47114;DHT22;32867;51.556;6.832;2023-04-06T04:01:31;6.10;69.00
47114;DHT22;32867;51.556;6.832;2023-04-06T04:06:32;6.00;69.40
47114;DHT22;32867;51.556;6.832;2023-04-06T04:11:33;6.00;69.40
47114;DHT22;32867;51.556;6.832;2023-04-06T04:16:33;5.80;70.30
47114;DHT22;32867;51.556;6.832;2023-04-06T04:21:45;5.80;70.30
47114;DHT22;32867;51.556;6.832;2023-04-06T04:26:48;5.80;70.40
47114;DHT22;32867;51.556;6.832;2023-04-06T04:31:50;5.80;69.80
47114;DHT22;32867;51.556;6.832;2023-04-06T04:36:52;5.90;69.60
47114;DHT22;32867;51.556;6.832;2023-04-06T04:42:02;6.00;69.60
47114;DHT22;32867;51.556;6.832;2023-04-06T04:47:06;5.90;69.80
47114;DHT22;32867;51.556;6.832;2023-04-06T04:52:15;5.80;70.20
47114;DHT22;32867;51.556;6.832;2023-04-06T04:57:29;5.80;70.10
47114;DHT22;32867;51.556;6.832;2023-04-06T05:02:30;5.90;69.80
47114;DHT22;32867;51.556;6.832;2023-04-06T05:07:54;5.90;69.90
47114;DHT22;32867;51.556;6.832;2023-04-06T05:13:08;5.90;69.70
47114;DHT22;32867;51.556;6.832;2023-04-06T05:18:09;5.90;70.30
47114;DHT22;32867;51.556;6.832;2023-04-06T05:23:10;5.80;70.70
47114;DHT22;32867;51.556;6.832;2023-04-06T05:28:12;6.00;69.90
47114;DHT22;32867;51.556;6.832;2023-04-06T05:33:14;6.10;69.70
47114;DHT22;32867;51.556;6.832;2023-04-06T05:38:31;6.10;69.80
47114;DHT22;32867;51.556;6.832;2023-04-06T05:43:40;6.20;69.50
47114;DHT22;32867;51.556;6.832;2023-04-06T05:48:41;6.10;70.40
47114;DHT22;32867;51.556;6.832;2023-04-06T05:53:43;6.10;70.40
47114;DHT22;32867;51.556;6.832;2023-04-06T05:58:44;6.10;70.80
47114;DHT22;32867;51.556;6.832;2023-04-06T06:03:47;6.30;70.20
47114;DHT22;32867;51.556;6.832;2023-04-06T06:08:49;6.20;70.90
47114;DHT22;32867;51.556;6.832;2023-04-06T06:13:52;6.10;70.90
47114;DHT22;32867;51.556;6.832;2023-04-06T06:18:53;6.30;70.70
47114;DHT22;32867;51.556;6.832;2023-04-06T06:23:54;6.20;70.70
47114;DHT22;32867;51.556;6.832;2023-04-06T06:28:56;6.30;70.60
47114;DHT22;32867;51.556;6.832;2023-04-06T06:33:57;6.50;70.10
47114;DHT22;32867;51.556;6.832;2023-04-06T06:38:59;6.40;70.30
47114;DHT22;32867;51.556;6.832;2023-04-06T06:44:01;6.60;70.20
47114;DHT22;32867;51.556;6.832;2023-04-06T06:49:03;6.70;69.90
47114;DHT22;32867;51.556;6.832;2023-04-06T06:54:04;6.70;69.70
47114;DHT22;32867;51.556;6.832;2023-04-06T06:59:05;6.80;69.30
47114;DHT22;32867;51.556;6.832;2023-04-06T07:04:06;6.90;69.40
47114;DHT22;32867;51.556;6.832;2023-04-06T07:09:09;7.00;68.50
47114;DHT22;32867;51.556;6.832;2023-04-06T07:14:10;7.10;68.50
47114;DHT22;32867;51.556;6.832;2023-04-06T07:19:12;7.20;68.40
47114;DHT22;32867;51.556;6.832;2023-04-06T07:24:13;7.50;68.10
47114;DHT22;32867;51.556;6.832;2023-04-06T07:29:14;7.80;67.40
47114;DHT22;32867;51.556;6.832;2023-04-06T07:34:15;8.10;67.50
47114;DHT22;32867;51.556;6.832;2023-04-06T07:39:16;8.30;65.90
47114;DHT22;32867;51.556;6.832;2023-04-06T07:44:17;8.60;65.20
47114;DHT22;32867;51.556;6.832;2023-04-06T07:49:19;8.90;64.10
47114;DHT22;32867;51.556;6.832;2023-04-06T07:54:21;9.10;63.30
47114;DHT22;32867;51.556;6.832;2023-04-06T07:59:22;9.40;63.40
47114;DHT22;32867;51.556;6.832;2023-04-06T08:04:23;9.60;62.60
47114;DHT22;32867;51.556;6.832;2023-04-06T08:09:23;9.80;61.90
47114;DHT22;32867;51.556;6.832;2023-04-06T08:14:24;10.00;61.90
47114;DHT22;32867;51.556;6.832;2023-04-06T08:19:25;10.10;61.30
47114;DHT22;32867;51.556;6.832;2023-04-06T08:24:25;10.20;62.20
47114;DHT22;32867;51.556;6.832;2023-04-06T08:29:26;10.30;62.00
47114;DHT22;32867;51.556;6.832;2023-04-06T08:34:27;10.80;60.90
47114;DHT22;32867;51.556;6.832;2023-04-06T08:39:28;10.90;60.90
47114;DHT22;32867;51.556;6.832;2023-04-06T08:44:32;11.10;60.10
47114;DHT22;32867;51.556;6.832;2023-04-06T08:49:34;11.20;59.70
47114;DHT22;32867;51.556;6.832;2023-04-06T08:54:35;11.50;60.00
47114;DHT22;32867;51.556;6.832;2023-04-06T08:59:36;11.70;60.00
47114;DHT22;32867;51.556;6.832;2023-04-06T09:04:37;11.70;59.00
47114;DHT22;32867;51.556;6.832;2023-04-06T09:09:38;11.90;59.50
47114;DHT22;32867;51.556;6.832;2023-04-06T09:14:43;12.40;58.90
47114;DHT22;32867;51.556;6.832;2023-04-06T09:19:48;12.90;58.40
47114;DHT22;32867;51.556;6.832;2023-04-06T09:24:51;13.50;57.20
47114;DHT22;32867;51.556;6.832;2023-04-06T09:30:11;13.50;55.60
47114;DHT22;32867;51.556;6.832;2023-04-06T09:35:17;13.60;55.90
47114;DHT22;32867;51.556;6.832;2023-04-06T09:40:20;13.30;55.00
47114;DHT22;32867;51.556;6.832;2023-04-06T09:45:22;14.00;56.20
47114;DHT22;32867;51.556;6.832;2023-04-06T09:50:24;14.30;53.70
47114;DHT22;32867;51.556;6.832;2023-04-06T09:55:32;14.30;54.60
47114;DHT22;32867;51.556;6.832;2023-04-06T10:01:03;14.80;54.50
47114;DHT22;32867;51.556;6.832;2023-04-06T10:06:10;14.50;52.80
47114;DHT22;32867;51.556;6.832;2023-04-06T10:11:12;14.70;54.00
47114;DHT22;32867;51.556;6.832;2023-04-06T10:16:13;14.80;53.40
47114;DHT22;32867;51.556;6.832;2023-04-06T10:21:20;15.10;52.40
47114;DHT22;32867;51.556;6.832;2023-04-06T10:26:22;15.30;52.10
47114;DHT22;32867;51.556;6.832;2023-04-06T10:31:26;15.30;51.80
47114;DHT22;32867;51.556;6.832;2023-04-06T10:36:34;15.60;52.60
47114;DHT22;32867;51.556;6.832;2023-04-06T10:41:45;15.70;51.70
47114;DHT22;32867;51.556;6.832;2023-04-06T10:46:59;16.10;51.50
47114;DHT22;32867;51.556;6.832;2023-04-06T10:52:03;16.40;51.20
47114;DHT22;32867;51.556;6.832;2023-04-06T10:57:04;16.30;51.00
47114;DHT22;32867;51.556;6.832;2023-04-06T11:02:05;16.30;50.30
47114;DHT22;32867;51.556;6.832;2023-04-06T11:07:06;16.20;50.60
47114;DHT22;32867;51.556;6.832;2023-04-06T11:12:06;16.00;52.30
47114;DHT22;32867;51.556;6.832;2023-04-06T11:17:07;15.80;51.90
47114;DHT22;32867;51.556;6.832;2023-04-06T11:22:08;15.70;52.90
47114;DHT22;32867;51.556;6.832;2023-04-06T11:27:08;15.70;52.90
47114;DHT22;32867;51.556;6.832;2023-04-06T11:32:09;16.00;53.00
47114;DHT22;32867;51.556;6.832;2023-04-06T11:37:11;16.70;51.70
47114;DHT22;32867;51.556;6.832;2023-04-06T11:42:12;16.90;50.90
47114;DHT22;32867;51.556;6.832;2023-04-06T11:47:13;16.60;50.90
47114;DHT22;32867;51.556;6.832;2023-04-06T11:52:32;16.10;52.10
47114;DHT22;32867;51.556;6.832;2023-04-06T11:57:33;15.90;52.90
47114;DHT22;32867;51.556;6.832;2023-04-06T12:02:35;16.50;54.00
47114;DHT22;32867;51.556;6.832;2023-04-06T12:07:36;17.30;51.80
47114;DHT22;32867;51.556;6.832;2023-04-06T12:12:37;17.20;51.90
47114;DHT22;32867;51.556;6.832;2023-04-06T12:17:38;16.60;52.90
47114;DHT22;32867;51.556;6.832;2023-04-06T12:22:39;15.70;54.00
47114;DHT22;32867;51.556;6.832;2023-04-06T12:27:40;15.60;54.70
47114;DHT22;32867;51.556;6.832;2023-04-06T12:32:40;15.60;55.50
47114;DHT22;32867;51.556;6.832;2023-04-06T12:37:41;15.30;56.20
47114;DHT22;32867;51.556;6.832;2023-04-06T12:42:42;14.90;56.60
47114;DHT22;32867;51.556;6.832;2023-04-06T12:47:43;14.90;56.60
47114;DHT22;32867;51.556;6.832;2023-04-06T12:52:44;14.70;56.60
47114;DHT22;32867;51.556;6.832;2023-04-06T12:57:45;14.70;56.90
47114;DHT22;32867;51.556;6.832;2023-04-06T13:02:45;14.90;56.70
47114;DHT22;32867;51.556;6.832;2023-04-06T13:07:47;15.10;57.00
47114;DHT22;32867;51.556;6.832;2023-04-06T13:12:48;15.10;57.20
47114;DHT22;32867;51.556;6.832;2023-04-06T13:17:48;15.00;58.10
47114;DHT22;32867;51.556;6.832;2023-04-06T13:22:49;14.30;57.90
47114;DHT22;32867;51.556;6.832;2023-04-06T13:27:50;14.00;59.30
47114;DHT22;32867;51.556;6.832;2023-04-06T13:32:51;14.20;60.20
47114;DHT22;32867;51.556;6.832;2023-04-06T13:37:51;14.10;61.20
47114;DHT22;32867;51.556;6.832;2023-04-06T13:42:52;14.20;61.50
47114;DHT22;32867;51.556;6.832;2023-04-06T13:47:53;14.30;62.40
47114;DHT22;32867;51.556;6.832;2023-04-06T13:52:54;14.00;62.70
47114;DHT22;32867;51.556;6.832;2023-04-06T13:57:55;13.80;63.70
47114;DHT22;32867;51.556;6.832;2023-04-06T14:02:56;13.70;63.00
47114;DHT22;32867;51.556;6.832;2023-04-06T14:07:56;13.70;63.30
47114;DHT22;32867;51.556;6.832;2023-04-06T14:12:57;13.70;64.00
47114;DHT22;32867;51.556;6.832;2023-04-06T14:17:58;13.50;65.50
47114;DHT22;32867;51.556;6.832;2023-04-06T14:23:02;13.60;66.20
47114;DHT22;32867;51.556;6.832;2023-04-06T14:28:03;13.50;68.60
47114;DHT22;32867;51.556;6.832;2023-04-06T14:33:03;13.30;70.60
47114;DHT22;32867;51.556;6.832;2023-04-06T14:38:05;13.40;72.50
47114;DHT22;32867;51.556;6.832;2023-04-06T14:43:05;13.30;74.40
47114;DHT22;32867;51.556;6.832;2023-04-06T14:48:06;13.20;76.30
47114;DHT22;32867;51.556;6.832;2023-04-06T14:53:07;13.10;77.70
47114;DHT22;32867;51.556;6.832;2023-04-06T14:58:08;13.10;79.10
47114;DHT22;32867;51.556;6.832;2023-04-06T15:03:08;12.50;81.60
47114;DHT22;32867;51.556;6.832;2023-04-06T15:08:09;12.80;83.60
47114;DHT22;32867;51.556;6.832;2023-04-06T15:13:10;12.80;83.20
47114;DHT22;32867;51.556;6.832;2023-04-06T15:18:11;12.90;83.00
47114;DHT22;32867;51.556;6.832;2023-04-06T15:23:12;12.80;83.70
47114;DHT22;32867;51.556;6.832;2023-04-06T15:28:12;12.70;84.70
47114;DHT22;32867;51.556;6.832;2023-04-06T15:33:13;12.40;88.20
47114;DHT22;32867;51.556;6.832;2023-04-06T15:38:14;12.00;91.50
47114;DHT22;32867;51.556;6.832;2023-04-06T15:43:15;12.00;91.90
47114;DHT22;32867;51.556;6.832;2023-04-06T15:48:16;11.60;93.90
47114;DHT22;32867;51.556;6.832;2023-04-06T15:53:16;11.50;97.50
47114;DHT22;32867;51.556;6.832;2023-04-06T15:58:17;11.20;99.90
47114;DHT22;32867;51.556;6.832;2023-04-06T16:03:18;11.40;99.90
47114;DHT22;32867;51.556;6.832;2023-04-06T16:08:19;11.30;99.90
47114;DHT22;32867;51.556;6.832;2023-04-06T16:13:20;11.30;99.90
47114;DHT22;32867;51.556;6.832;2023-04-06T16:18:21;11.20;99.90
47114;DHT22;32867;51.556;6.832;2023-04-06T16:23:22;10.80;99.90
47114;DHT22;32867;51.556;6.832;2023-04-06T16:28:23;10.70;99.90
47114;DHT22;32867;51.556;6.832;2023-04-06T16:33:24;10.70;99.90
47114;DHT22;32867;51.556;6.832;2023-04-06T16:38:25;10.60;99.90
47114;DHT22;32867;51.556;6.832;2023-04-06T16:43:33;10.60;99.90
47114;DHT22;32867;51.556;6.832;2023-04-06T16:48:34;10.50;99.90
47114;DHT22;32867;51.556;6.832;2023-04-06T16:53:36;10.40;99.90
47114;DHT22;32867;51.556;6.832;2023-04-06T16:58:37;10.10;99.90
47114;DHT22;32867;51.556;6.832;2023-04-06T17:03:38;10.00;99.90
47114;DHT22;32867;51.556;6.832;2023-04-06T17:08:40;9.90;99.90
47114;DHT22;32867;51.556;6.832;2023-04-06T17:13:42;9.80;99.90
47114;DHT22;32867;51.556;6.832;2023-04-06T17:18:43;9.70;99.90
47114;DHT22;32867;51.556;6.832;2023-04-06T17:23:43;9.60;99.90
47114;DHT22;32867;51.556;6.832;2023-04-06T17:28:44;9.50;99.90
47114;DHT22;32867;51.556;6.832;2023-04-06T17:33:45;9.50;99.90
47114;DHT22;32867;51.556;6.832;2023-04-06T17:38:46;9.60;99.90
47114;DHT22;32867;51.556;6.832;2023-04-06T17:43:47;9.60;99.90
47114;DHT22;32867;51.556;6.832;2023-04-06T17:48:48;9.50;99.90
47114;DHT22;32867;51.556;6.832;2023-04-06T17:53:50;9.50;99.90
47114;DHT22;32867;51.556;6.832;2023-04-06T17:58:54;9.40;99.90
47114;DHT22;32867;51.556;6.832;2023-04-06T18:03:56;9.30;99.90
47114;DHT22;32867;51.556;6.832;2023-04-06T18:08:57;9.30;99.90
47114;DHT22;32867;51.556;6.832;2023-04-06T18:13:58;9.10;99.90
47114;DHT22;32867;51.556;6.832;2023-04-06T18:19:00;9.20;99.90
47114;DHT22;32867;51.556;6.832;2023-04-06T18:24:01;8.90;99.90
47114;DHT22;32867;51.556;6.832;2023-04-06T18:29:01;9.00;99.90
47114;DHT22;32867;51.556;6.832;2023-04-06T18:34:02;9.00;99.90
47114;DHT22;32867;51.556;6.832;2023-04-06T18:39:04;9.00;99.90
47114;DHT22;32867;51.556;6.832;2023-04-06T18:44:05;9.00;99.90
47114;DHT22;32867;51.556;6.832;2023-04-06T18:49:06;9.00;99.90
47114;DHT22;32867;51.556;6.832;2023-04-06T18:54:06;9.00;99.90
47114;DHT22;32867;51.556;6.832;2023-04-06T18:59:07;9.00;99.90
47114;DHT22;32867;51.556;6.832;2023-04-06T19:04:08;8.90;99.90
47114;DHT22;32867;51.556;6.832;2023-04-06T19:09:10;8.90;99.90
47114;DHT22;32867;51.556;6.832;2023-04-06T19:14:11;8.90;99.90
47114;DHT22;32867;51.556;6.832;2023-04-06T19:19:12;8.70;99.90
47114;DHT22;32867;51.556;6.832;2023-04-06T19:24:12;8.90;99.90
47114;DHT22;32867;51.556;6.832;2023-04-06T19:29:13;8.90;99.90
47114;DHT22;32867;51.556;6.832;2023-04-06T19:34:14;8.90;99.90
47114;DHT22;32867;51.556;6.832;2023-04-06T19:39:17;9.00;99.90
47114;DHT22;32867;51.556;6.832;2023-04-06T19:44:17;8.90;99.90
47114;DHT22;32867;51.556;6.832;2023-04-06T19:49:18;8.80;99.90
47114;DHT22;32867;51.556;6.832;2023-04-06T19:54:19;8.80;99.90
47114;DHT22;32867;51.556;6.832;2023-04-06T19:59:21;8.80;99.90
47114;DHT22;32867;51.556;6.832;2023-04-06T20:04:22;8.70;99.90
47114;DHT22;32867;51.556;6.832;2023-04-06T20:09:24;8.70;99.90
47114;DHT22;32867;51.556;6.832;2023-04-06T20:14:25;8.70;99.90
47114;DHT22;32867;51.556;6.832;2023-04-06T20:19:26;8.70;99.90
47114;DHT22;32867;51.556;6.832;2023-04-06T20:24:27;8.70;99.90
47114;DHT22;32867;51.556;6.832;2023-04-06T20:29:27;8.60;99.90
47114;DHT22;32867;51.556;6.832;2023-04-06T20:34:29;8.70;99.90
47114;DHT22;32867;51.556;6.832;2023-04-06T20:39:29;8.70;99.90
47114;DHT22;32867;51.556;6.832;2023-04-06T20:44:30;8.60;99.90
47114;DHT22;32867;51.556;6.832;2023-04-06T20:49:31;8.90;99.90
47114;DHT22;32867;51.556;6.832;2023-04-06T20:54:32;8.90;99.90
47114;DHT22;32867;51.556;6.832;2023-04-06T20:59:32;9.00;99.90
47114;DHT22;32867;51.556;6.832;2023-04-06T21:04:34;9.00;99.90
47114;DHT22;32867;51.556;6.832;2023-04-06T21:09:39;8.80;99.90
47114;DHT22;32867;51.556;6.832;2023-04-06T21:14:40;8.70;99.90
47114;DHT22;32867;51.556;6.832;2023-04-06T21:19:41;8.70;99.90
47114;DHT22;32867;51.556;6.832;2023-04-06T21:24:42;8.60;99.90
47114;DHT22;32867;51.556;6.832;2023-04-06T21:29:42;8.80;99.90
47114;DHT22;32867;51.556;6.832;2023-04-06T21:34:43;8.60;99.90
47114;DHT22;32867;51.556;6.832;2023-04-06T21:39:48;8.70;99.90
47114;DHT22;32867;51.556;6.832;2023-04-06T21:44:49;8.60;99.90
47114;DHT22;32867;51.556;6.832;2023-04-06T21:49:49;8.60;99.90
47114;DHT22;32867;51.556;6.832;2023-04-06T21:54:50;8.60;99.90
47114;DHT22;32867;51.556;6.832;2023-04-06T21:59:50;8.60;99.90
47114;DHT22;32867;51.556;6.832;2023-04-06T22:04:51;8.60;99.90
47114;DHT22;32867;51.556;6.832;2023-04-06T22:09:52;8.70;99.90
47114;DHT22;32867;51.556;6.832;2023-04-06T22:14:52;8.50;99.90
47114;DHT22;32867;51.556;6.832;2023-04-06T22:19:53;8.70;99.90
47114;DHT22;32867;51.556;6.832;2023-04-06T22:24:54;8.70;99.90
47114;DHT22;32867;51.556;6.832;2023-04-06T22:29:56;8.70;99.90
47114;DHT22;32867;51.556;6.832;2023-04-06T22:34:56;8.70;99.90
47114;DHT22;32867;51.556;6.832;2023-04-06T22:39:57;8.80;99.90
47114;DHT22;32867;51.556;6.832;2023-04-06T22:44:58;8.80;99.90
47114;DHT22;32867;51.556;6.832;2023-04-06T22:49:58;8.90;99.90
47114;DHT22;32867;51.556;6.832;2023-04-06T22:54:59;8.80;99.90
47114;DHT22;32867;51.556;6.832;2023-04-06T23:00:00;8.90;99.90
47114;DHT22;32867;51.556;6.832;2023-04-06T23:05:01;8.90;99.90
47114;DHT22;32867;51.556;6.832;2023-04-06T23:10:02;9.10;99.90
47114;DHT22;32867;51.556;6.832;2023-04-06T23:15:03;9.20;99.90
47114;DHT22;32867;51.556;6.832;2023-04-06T23:20:04;9.30;99.90
47114;DHT22;32867;51.556;6.832;2023-04-06T23:25:05;9.20;99.90
47114;DHT22;32867;51.556;6.832;2023-04-06T23:30:07;9.30;99.90
47114;DHT22;32867;51.556;6.832;2023-04-06T23:35:08;9.30;99.90
47114;DHT22;32867;51.556;6.832;2023-04-06T23:40:09;9.50;99.90
47114;DHT22;32867;51.556;6.832;2023-04-06T23:45:10;9.60;99.90
47114;DHT22;32867;51.556;6.832;2023-04-06T23:50:10;9.50;99.90
47114;DHT22;32867;51.556;6.832;2023-04-06T23:55:11;9.60;99.90
